createdAt,value
2018-03-11T00:02:05.966Z,10.10
2018-03-11T00:04:34.875Z,10.10
2018-03-11T00:07:04.744Z,10.10
2018-03-11T00:09:33.785Z,10.10
2018-03-11T00:12:03.994Z,10.10
2018-03-11T00:14:33.685Z,10.10
2018-03-11T00:17:03.142Z,10.00
2018-03-11T00:19:33.105Z,10.10
2018-03-11T00:22:03.263Z,10.10
2018-03-11T00:24:32.247Z,10.10
2018-03-11T00:27:02.218Z,10.10
2018-03-11T00:29:31.386Z,10.10
2018-03-11T00:32:00.891Z,10.10
2018-03-11T00:34:30.124Z,10.10
2018-03-11T00:37:00.384Z,10.10
2018-03-11T00:39:31.008Z,10.10
2018-03-11T00:42:01.184Z,10.10
2018-03-11T00:44:30.693Z,10.00
2018-03-11T00:47:00.705Z,10.10
2018-03-11T00:49:30.960Z,10.00
2018-03-11T00:52:00.852Z,10.00
2018-03-11T00:54:30.625Z,10.10
2018-03-11T00:56:59.895Z,10.10
2018-03-11T00:59:30.872Z,10.00
2018-03-11T01:01:59.995Z,10.00
2018-03-11T01:04:29.480Z,10.00
2018-03-11T01:06:59.349Z,10.00
2018-03-11T01:09:29.737Z,10.00
2018-03-11T01:11:59.548Z,10.00
2018-03-11T01:14:29.077Z,10.00
2018-03-11T01:17:00.104Z,10.00
2018-03-11T01:19:29.408Z,10.00
2018-03-11T01:21:58.280Z,10.00
2018-03-11T01:24:27.784Z,10.00
2018-03-11T01:26:58.158Z,10.00
2018-03-11T01:29:27.476Z,9.90
2018-03-11T01:31:57.727Z,10.00
2018-03-11T01:34:26.992Z,10.00
2018-03-11T01:36:56.672Z,10.00
2018-03-11T01:39:27.069Z,10.00
2018-03-11T01:41:57.010Z,9.90
2018-03-11T01:44:26.632Z,10.00
2018-03-11T01:46:56.414Z,10.10
2018-03-11T01:49:27.707Z,10.00
2018-03-11T01:51:56.406Z,10.00
2018-03-11T01:54:25.423Z,10.00
2018-03-11T01:56:54.510Z,9.90
2018-03-11T01:59:23.847Z,10.00
2018-03-11T02:01:53.943Z,9.90
2018-03-11T02:04:23.220Z,9.90
2018-03-11T02:06:52.472Z,9.80
2018-03-11T02:09:22.241Z,9.80
2018-03-11T02:11:52.275Z,9.80
2018-03-11T02:14:20.913Z,9.80
2018-03-11T02:16:49.613Z,9.90
2018-03-11T02:19:18.131Z,9.80
2018-03-11T02:21:48.096Z,9.80
2018-03-11T02:24:17.078Z,9.70
2018-03-11T02:26:46.083Z,9.70
2018-03-11T02:29:15.942Z,9.70
2018-03-11T02:31:44.757Z,9.60
2018-03-11T02:34:13.973Z,9.60
2018-03-11T02:36:42.678Z,9.60
2018-03-11T02:39:11.352Z,9.70
2018-03-11T02:41:40.089Z,9.70
2018-03-11T02:44:09.747Z,9.80
2018-03-11T02:46:38.720Z,9.80
2018-03-11T02:49:07.799Z,9.70
2018-03-11T02:51:37.498Z,9.70
2018-03-11T02:54:07.276Z,9.60
2018-03-11T02:56:36.151Z,9.60
2018-03-11T02:59:04.380Z,9.40
2018-03-11T03:01:33.531Z,9.20
2018-03-11T03:04:02.535Z,9.10
2018-03-11T03:06:31.052Z,9.10
2018-03-11T03:09:00.437Z,9.10
2018-03-11T03:11:29.994Z,9.00
2018-03-11T03:13:58.833Z,9.00
2018-03-11T03:16:27.901Z,8.90
2018-03-11T03:18:56.490Z,8.90
2018-03-11T03:21:24.899Z,8.90
2018-03-11T03:23:53.874Z,9.10
2018-03-11T03:26:22.267Z,9.10
2018-03-11T03:28:50.762Z,9.10
2018-03-11T03:31:20.485Z,9.00
2018-03-11T03:33:49.291Z,9.00
2018-03-11T03:36:19.186Z,9.00
2018-03-11T03:38:47.828Z,8.90
2018-03-11T03:41:16.465Z,8.80
2018-03-11T03:43:44.759Z,8.70
2018-03-11T03:46:13.521Z,8.60
2018-03-11T03:48:41.949Z,8.60
2018-03-11T03:51:10.611Z,8.50
2018-03-11T03:53:39.013Z,8.40
2018-03-11T03:56:08.819Z,8.20
2018-03-11T03:58:37.488Z,8.20
2018-03-11T04:01:06.296Z,8.20
2018-03-11T04:03:35.503Z,8.30
2018-03-11T04:06:04.117Z,8.20
2018-03-11T04:08:32.926Z,8.20
2018-03-11T04:11:01.540Z,8.00
2018-03-11T04:13:30.627Z,7.90
2018-03-11T04:15:59.301Z,7.70
2018-03-11T04:18:27.900Z,7.60
2018-03-11T04:20:56.297Z,7.40
2018-03-11T04:23:25.176Z,7.30
2018-03-11T04:25:53.987Z,7.20
2018-03-11T04:28:23.087Z,7.10
2018-03-11T04:30:51.961Z,7.00
2018-03-11T04:33:20.719Z,7.00
2018-03-11T04:35:49.256Z,7.00
2018-03-11T04:38:18.278Z,6.90
2018-03-11T04:40:47.233Z,6.80
2018-03-11T04:43:15.910Z,6.80
2018-03-11T04:45:45.070Z,6.90
2018-03-11T04:48:13.732Z,6.80
2018-03-11T04:50:42.231Z,6.70
2018-03-11T04:53:11.708Z,6.70
2018-03-11T04:55:41.045Z,6.70
2018-03-11T04:58:09.663Z,6.70
2018-03-11T05:00:38.859Z,6.70
2018-03-11T05:03:08.497Z,6.70
2018-03-11T05:05:37.434Z,6.70
2018-03-11T05:08:06.178Z,6.80
2018-03-11T05:10:35.418Z,6.90
2018-03-11T05:13:04.766Z,6.90
2018-03-11T05:15:34.143Z,6.90
2018-03-11T05:18:03.316Z,6.90
2018-03-11T05:20:31.886Z,6.90
2018-03-11T05:23:01.008Z,6.80
2018-03-11T05:25:30.084Z,6.80
2018-03-11T05:27:58.682Z,6.80
2018-03-11T05:30:28.067Z,6.80
2018-03-11T05:32:56.622Z,6.80
2018-03-11T05:35:25.026Z,6.80
2018-03-11T05:37:53.664Z,6.90
2018-03-11T05:40:24.876Z,6.90
2018-03-11T05:42:53.716Z,6.90
2018-03-11T05:45:22.406Z,6.90
2018-03-11T05:47:51.298Z,7.10
2018-03-11T05:50:19.965Z,7.20
2018-03-11T05:52:49.112Z,7.20
2018-03-11T05:55:18.085Z,7.10
2018-03-11T05:57:46.634Z,7.20
2018-03-11T06:00:16.061Z,7.20
2018-03-11T06:02:44.763Z,7.20
2018-03-11T06:05:13.486Z,7.20
2018-03-11T06:07:43.460Z,7.20
2018-03-11T06:10:12.401Z,7.20
2018-03-11T06:12:42.711Z,7.10
2018-03-11T06:15:11.948Z,7.20
2018-03-11T06:17:41.086Z,7.20
2018-03-11T06:20:11.113Z,7.40
2018-03-11T06:22:40.103Z,7.40
2018-03-11T06:25:09.455Z,7.40
2018-03-11T06:27:38.654Z,7.40
2018-03-11T06:30:07.064Z,7.60
2018-03-11T06:32:36.096Z,7.80
2018-03-11T06:35:05.034Z,8.00
2018-03-11T06:37:33.881Z,8.00
2018-03-11T06:40:03.046Z,8.00
2018-03-11T06:42:32.049Z,8.00
2018-03-11T06:45:00.797Z,8.10
2018-03-11T06:47:29.953Z,7.60
2018-03-11T06:49:59.571Z,7.20
2018-03-11T06:52:29.535Z,7.10
2018-03-11T06:54:58.453Z,7.10
2018-03-11T06:57:27.009Z,7.10
2018-03-11T06:59:57.224Z,7.30
2018-03-11T07:02:26.965Z,7.40
2018-03-11T07:04:57.124Z,7.50
2018-03-11T07:07:26.520Z,7.50
2018-03-11T07:09:56.521Z,7.70
2018-03-11T07:12:26.085Z,7.80
2018-03-11T07:14:56.191Z,7.70
2018-03-11T07:17:25.830Z,8.00
2018-03-11T07:19:55.343Z,8.10
2018-03-11T07:22:25.668Z,8.20
2018-03-11T07:24:55.417Z,8.50
2018-03-11T07:27:26.383Z,8.50
2018-03-11T07:29:56.317Z,8.80
2018-03-11T07:32:25.602Z,9.10
2018-03-11T07:34:55.400Z,9.70
2018-03-11T07:37:26.065Z,10.50
2018-03-11T07:39:56.072Z,10.90
2018-03-11T07:42:25.405Z,12.10
2018-03-11T07:44:55.363Z,13.90
2018-03-11T07:47:24.507Z,14.40
2018-03-11T07:49:54.260Z,14.40
2018-03-11T07:52:24.075Z,14.40
2018-03-11T07:54:53.658Z,14.00
2018-03-11T07:57:22.643Z,13.60
2018-03-11T07:59:52.784Z,13.20
2018-03-11T08:02:22.495Z,13.10
2018-03-11T08:04:54.185Z,12.40
2018-03-11T08:07:23.403Z,11.70
2018-03-11T08:09:52.849Z,11.70
2018-03-11T08:12:22.424Z,12.70
2018-03-11T08:14:58.793Z,13.10
2018-03-11T08:17:29.318Z,12.70
2018-03-11T08:19:58.697Z,13.10
2018-03-11T08:22:28.450Z,13.40
2018-03-11T08:24:57.613Z,13.90
2018-03-11T08:27:27.663Z,14.70
2018-03-11T08:29:56.952Z,14.60
2018-03-11T08:32:26.440Z,14.70
2018-03-11T08:34:56.232Z,15.40
2018-03-11T08:37:25.372Z,15.70
2018-03-11T08:39:56.895Z,16.50
2018-03-11T08:42:26.675Z,16.40
2018-03-11T08:44:56.653Z,16.00
2018-03-11T08:47:26.247Z,16.20
2018-03-11T08:49:56.225Z,18.70
2018-03-11T08:52:26.022Z,18.10
2018-03-11T08:54:55.372Z,17.10
2018-03-11T08:57:25.235Z,16.40
2018-03-11T08:59:54.291Z,14.90
2018-03-11T09:02:23.271Z,14.90
2018-03-11T09:04:52.463Z,14.50
2018-03-11T09:07:22.203Z,14.40
2018-03-11T09:09:50.948Z,14.20
2018-03-11T09:12:20.806Z,14.10
2018-03-11T09:14:50.437Z,14.00
2018-03-11T09:17:20.405Z,14.70
2018-03-11T09:19:50.105Z,14.70
2018-03-11T09:22:19.296Z,14.70
2018-03-11T09:24:48.877Z,14.60
2018-03-11T09:27:19.765Z,14.70
2018-03-11T09:29:48.860Z,14.60
2018-03-11T09:32:18.038Z,14.40
2018-03-11T09:34:47.152Z,14.60
2018-03-11T09:37:16.921Z,14.80
2018-03-11T09:39:46.014Z,15.10
2018-03-11T09:42:15.113Z,15.20
2018-03-11T09:44:45.048Z,15.30
2018-03-11T09:47:13.950Z,15.30
2018-03-11T09:49:42.923Z,15.30
2018-03-11T09:52:12.094Z,15.30
2018-03-11T09:54:41.604Z,15.30
2018-03-11T09:57:10.609Z,15.40
2018-03-11T09:59:40.296Z,15.50
2018-03-11T10:02:09.473Z,15.40
2018-03-11T10:04:39.537Z,15.50
2018-03-11T10:07:09.476Z,15.60
2018-03-11T10:09:39.226Z,15.60
2018-03-11T10:12:08.448Z,15.70
2018-03-11T10:14:38.484Z,15.90
2018-03-11T10:17:07.598Z,15.90
2018-03-11T10:19:36.866Z,16.10
2018-03-11T10:22:08.162Z,16.10
2018-03-11T10:24:37.317Z,16.10
2018-03-11T10:27:06.970Z,16.20
2018-03-11T10:29:35.754Z,16.50
2018-03-11T10:32:04.590Z,16.80
2018-03-11T10:34:34.362Z,16.70
2018-03-11T10:37:03.817Z,16.70
2018-03-11T10:39:32.598Z,16.50
2018-03-11T10:42:02.408Z,16.40
2018-03-11T10:44:32.638Z,16.40
2018-03-11T10:47:01.539Z,16.40
2018-03-11T10:49:30.529Z,16.20
2018-03-11T10:51:59.512Z,16.10
2018-03-11T10:54:29.271Z,16.00
2018-03-11T10:56:58.091Z,16.00
2018-03-11T10:59:27.827Z,15.80
2018-03-11T11:02:01.280Z,15.80
2018-03-11T11:04:33.839Z,15.80
2018-03-11T11:07:02.704Z,15.70
2018-03-11T11:09:31.840Z,15.70
2018-03-11T11:12:00.775Z,15.70
2018-03-11T11:14:31.899Z,15.70
2018-03-11T11:17:01.484Z,15.80
2018-03-11T11:19:31.724Z,15.70
2018-03-11T11:22:01.358Z,15.70
2018-03-11T11:24:30.541Z,15.70
2018-03-11T11:27:00.373Z,15.80
2018-03-11T11:29:29.487Z,15.70
2018-03-11T11:31:58.506Z,15.80
2018-03-11T11:34:27.597Z,15.60
2018-03-11T11:36:56.380Z,15.60
2018-03-11T11:39:26.236Z,15.70
2018-03-11T11:41:55.837Z,15.50
2018-03-11T11:44:25.484Z,15.40
2018-03-11T11:46:54.253Z,15.40
2018-03-11T11:49:23.959Z,15.40
2018-03-11T11:51:53.331Z,15.30
2018-03-11T11:54:23.181Z,15.20
2018-03-11T11:56:52.051Z,15.10
2018-03-11T11:59:21.649Z,15.30
2018-03-11T12:01:51.224Z,15.90
2018-03-11T12:04:20.004Z,15.80
2018-03-11T12:06:49.142Z,16.00
2018-03-11T12:09:18.679Z,16.00
2018-03-11T12:11:47.531Z,16.00
2018-03-11T12:14:17.380Z,15.80
2018-03-11T12:16:46.290Z,15.80
2018-03-11T12:19:15.352Z,15.50
2018-03-11T12:21:44.655Z,15.30
2018-03-11T12:24:13.666Z,15.20
2018-03-11T12:26:42.585Z,15.30
2018-03-11T12:29:11.585Z,15.30
2018-03-11T12:31:40.729Z,15.20
2018-03-11T12:34:10.175Z,15.00
2018-03-11T12:36:39.301Z,14.70
2018-03-11T12:39:09.468Z,14.70
2018-03-11T12:41:39.078Z,14.70
2018-03-11T12:44:08.456Z,14.70
2018-03-11T12:46:37.761Z,14.70
2018-03-11T12:49:07.524Z,14.80
2018-03-11T12:51:36.302Z,14.80
2018-03-11T12:54:05.243Z,14.80
2018-03-11T12:56:34.160Z,14.80
2018-03-11T12:59:02.929Z,14.60
2018-03-11T13:01:31.828Z,14.50
2018-03-11T13:04:00.503Z,14.50
2018-03-11T13:06:29.435Z,14.70
2018-03-11T13:08:58.250Z,14.80
2018-03-11T13:11:27.659Z,14.80
2018-03-11T13:13:57.329Z,14.70
2018-03-11T13:16:26.976Z,14.70
2018-03-11T13:18:56.474Z,14.80
2018-03-11T13:21:25.990Z,15.00
2018-03-11T13:23:54.589Z,15.00
2018-03-11T13:26:23.274Z,15.20
2018-03-11T13:28:52.438Z,15.40
2018-03-11T13:31:21.959Z,15.40
2018-03-11T13:34:16.198Z,15.40
2018-03-11T13:36:45.844Z,15.30
2018-03-11T13:39:26.439Z,15.30
2018-03-11T13:41:55.277Z,15.20
2018-03-11T13:44:24.347Z,15.30
2018-03-11T13:47:03.005Z,15.40
2018-03-11T13:49:32.612Z,15.40
2018-03-11T13:52:12.076Z,15.40
2018-03-11T13:54:40.851Z,15.30
2018-03-11T13:57:19.436Z,15.30
2018-03-11T13:59:50.502Z,15.20
2018-03-11T14:02:20.191Z,15.30
2018-03-11T14:04:49.400Z,15.30
2018-03-11T14:07:19.186Z,15.40
2018-03-11T14:09:48.411Z,15.30
2018-03-11T14:12:17.979Z,15.80
2018-03-11T14:14:48.205Z,15.80
2018-03-11T14:17:18.400Z,15.90
2018-03-11T14:19:48.403Z,16.10
2018-03-11T14:22:17.989Z,16.10
2018-03-11T14:24:47.482Z,16.00
2018-03-11T14:27:17.173Z,16.10
2018-03-11T14:29:46.154Z,16.00
2018-03-11T14:32:15.571Z,16.10
2018-03-11T14:34:45.504Z,16.20
2018-03-11T14:37:15.110Z,16.30
2018-03-11T14:39:44.900Z,16.40
2018-03-11T14:42:13.822Z,16.30
2018-03-11T14:44:42.699Z,16.40
2018-03-11T14:47:12.345Z,16.20
2018-03-11T14:49:41.191Z,16.20
2018-03-11T14:52:10.816Z,16.00
2018-03-11T14:54:42.010Z,16.10
2018-03-11T14:57:11.087Z,16.10
2018-03-11T14:59:40.082Z,16.10
2018-03-11T15:02:09.108Z,16.00
2018-03-11T15:04:38.117Z,16.00
2018-03-11T15:07:07.698Z,16.00
2018-03-11T15:09:36.533Z,15.90
2018-03-11T15:12:05.549Z,15.90
2018-03-11T15:14:34.574Z,15.80
2018-03-11T15:17:03.593Z,15.80
2018-03-11T15:19:33.435Z,15.80
2018-03-11T15:22:02.665Z,15.80
2018-03-11T15:24:31.613Z,15.70
2018-03-11T15:27:00.500Z,15.80
2018-03-11T15:29:30.112Z,15.70
2018-03-11T15:31:59.353Z,15.70
2018-03-11T15:34:28.049Z,15.70
2018-03-11T15:36:56.911Z,15.70
2018-03-11T15:39:25.865Z,15.70
2018-03-11T15:41:55.471Z,15.60
2018-03-11T15:44:25.168Z,15.60
2018-03-11T15:46:54.898Z,15.50
2018-03-11T15:49:23.998Z,15.50
2018-03-11T15:51:53.017Z,15.50
2018-03-11T15:54:21.972Z,15.50
2018-03-11T15:56:50.879Z,15.40
2018-03-11T15:59:19.844Z,15.30
2018-03-11T16:01:49.175Z,15.20
2018-03-11T16:04:18.058Z,15.10
2018-03-11T16:06:46.928Z,15.00
2018-03-11T16:09:16.944Z,14.90
2018-03-11T16:11:46.574Z,14.80
2018-03-11T16:14:15.457Z,14.80
2018-03-11T16:16:45.230Z,14.60
2018-03-11T16:19:14.354Z,14.60
2018-03-11T16:21:45.160Z,14.60
2018-03-11T16:24:14.316Z,14.40
2018-03-11T16:26:43.239Z,14.40
2018-03-11T16:29:11.972Z,14.30
2018-03-11T16:31:40.775Z,14.30
2018-03-11T16:34:09.973Z,14.20
2018-03-11T16:36:39.047Z,14.20
2018-03-11T16:39:08.837Z,14.10
2018-03-11T16:41:38.350Z,14.10
2018-03-11T16:44:07.981Z,14.00
2018-03-11T16:46:36.663Z,14.00
2018-03-11T16:49:05.738Z,14.00
2018-03-11T16:51:35.277Z,14.00
2018-03-11T16:54:04.139Z,14.00
2018-03-11T16:56:33.078Z,14.00
2018-03-11T16:59:02.004Z,14.00
2018-03-11T17:01:35.923Z,13.90
2018-03-11T17:04:05.463Z,13.90
2018-03-11T17:06:35.163Z,13.80
2018-03-11T17:09:04.601Z,13.80
2018-03-11T17:11:33.866Z,13.60
2018-03-11T17:14:02.745Z,13.50
2018-03-11T17:16:32.702Z,13.30
2018-03-11T17:19:13.436Z,13.30
2018-03-11T17:21:43.411Z,13.10
2018-03-11T17:24:13.754Z,13.00
2018-03-11T17:26:42.932Z,13.00
2018-03-11T17:29:12.686Z,12.90
2018-03-11T17:31:41.582Z,12.80
2018-03-11T17:34:11.461Z,12.80
2018-03-11T17:36:41.117Z,13.00
2018-03-11T17:39:10.380Z,13.00
2018-03-11T17:41:39.738Z,13.10
2018-03-11T17:44:09.117Z,13.20
2018-03-11T17:46:39.478Z,13.00
2018-03-11T17:49:08.461Z,13.00
2018-03-11T17:51:37.551Z,12.90
2018-03-11T17:54:06.432Z,12.80
2018-03-11T17:56:35.336Z,12.80
2018-03-11T17:59:05.098Z,12.90
2018-03-11T18:01:34.777Z,12.90
2018-03-11T18:04:04.915Z,13.00
2018-03-11T18:06:33.991Z,12.90
2018-03-11T18:09:04.485Z,13.00
2018-03-11T18:11:34.783Z,12.90
2018-03-11T18:14:04.037Z,13.00
2018-03-11T18:16:33.154Z,13.00
2018-03-11T18:19:02.356Z,13.00
2018-03-11T18:21:31.493Z,13.00
2018-03-11T18:24:00.447Z,13.00
2018-03-11T18:26:29.857Z,12.90
2018-03-11T18:28:58.614Z,12.80
2018-03-11T18:31:28.482Z,12.70
2018-03-11T18:33:57.377Z,12.70
2018-03-11T18:36:26.295Z,12.70
2018-03-11T18:38:55.874Z,12.50
2018-03-11T18:41:24.557Z,12.50
2018-03-11T18:43:54.234Z,12.40
2018-03-11T18:46:22.970Z,12.40
2018-03-11T18:48:51.784Z,12.30
2018-03-11T18:51:20.912Z,12.30
2018-03-11T18:53:49.738Z,12.20
2018-03-11T18:56:18.541Z,12.20
2018-03-11T18:58:47.873Z,12.20
2018-03-11T19:01:17.519Z,12.20
2018-03-11T19:03:46.392Z,12.10
2018-03-11T19:06:15.243Z,12.10
2018-03-11T19:08:44.635Z,12.10
2018-03-11T19:11:14.398Z,12.10
2018-03-11T19:13:43.527Z,12.10
2018-03-11T19:16:13.305Z,12.00
2018-03-11T19:18:44.933Z,12.00
2018-03-11T19:21:13.963Z,12.00
2018-03-11T19:23:42.617Z,12.00
2018-03-11T19:26:11.411Z,12.00
2018-03-11T19:28:41.464Z,11.90
2018-03-11T19:31:11.515Z,12.00
2018-03-11T19:33:41.079Z,11.90
2018-03-11T19:36:09.899Z,11.90
2018-03-11T19:38:39.658Z,11.90
2018-03-11T19:41:09.789Z,11.90
2018-03-11T19:43:39.722Z,11.90
2018-03-11T19:46:09.374Z,11.90
2018-03-11T19:48:39.021Z,11.90
2018-03-11T19:51:07.963Z,11.90
2018-03-11T19:53:37.586Z,11.80
2018-03-11T19:56:07.087Z,11.80
2018-03-11T19:58:35.978Z,11.80
2018-03-11T20:01:04.939Z,11.80
2018-03-11T20:03:34.632Z,11.80
2018-03-11T20:06:04.229Z,11.80
2018-03-11T20:08:33.109Z,11.80
2018-03-11T20:11:01.963Z,11.70
2018-03-11T20:13:32.201Z,11.70
2018-03-11T20:16:01.100Z,11.70
2018-03-11T20:18:30.219Z,11.70
2018-03-11T20:20:59.200Z,11.60
2018-03-11T20:23:28.110Z,11.60
2018-03-11T20:25:57.054Z,11.60
2018-03-11T20:28:27.932Z,11.60
2018-03-11T20:30:58.950Z,11.60
2018-03-11T20:33:28.138Z,11.50
2018-03-11T20:35:56.838Z,11.50
2018-03-11T20:38:25.580Z,11.40
2018-03-11T20:40:55.692Z,11.20
2018-03-11T20:43:26.032Z,11.10
2018-03-11T20:45:55.027Z,11.10
2018-03-11T20:48:23.972Z,11.10
2018-03-11T20:50:53.936Z,11.00
2018-03-11T20:53:23.094Z,11.00
2018-03-11T20:55:52.845Z,11.00
2018-03-11T20:58:22.390Z,10.90
2018-03-11T21:00:51.599Z,11.00
2018-03-11T21:03:20.627Z,11.00
2018-03-11T21:05:50.557Z,11.00
2018-03-11T21:08:19.450Z,10.90
2018-03-11T21:10:49.664Z,11.00
2018-03-11T21:13:18.497Z,11.00
2018-03-11T21:15:47.627Z,10.90
2018-03-11T21:18:17.226Z,10.90
2018-03-11T21:20:47.004Z,10.90
2018-03-11T21:23:16.737Z,11.00
2018-03-11T21:25:45.656Z,11.00
2018-03-11T21:28:16.772Z,10.90
2018-03-11T21:30:46.564Z,10.80
2018-03-11T21:33:15.473Z,10.80
2018-03-11T21:35:45.024Z,10.60
2018-03-11T21:38:13.945Z,10.50
2018-03-11T21:40:43.065Z,10.50
2018-03-11T21:43:12.975Z,10.40
2018-03-11T21:45:42.020Z,10.40
2018-03-11T21:48:10.967Z,10.30
2018-03-11T21:50:40.450Z,10.30
2018-03-11T21:53:09.790Z,10.30
2018-03-11T21:55:39.439Z,10.30
2018-03-11T21:58:08.513Z,10.30
2018-03-11T22:00:37.974Z,10.30
2018-03-11T22:03:07.309Z,10.30
2018-03-11T22:05:36.293Z,10.30
2018-03-11T22:08:05.635Z,10.30
2018-03-11T22:10:34.545Z,10.30
2018-03-11T22:13:03.568Z,10.30
2018-03-11T22:15:33.510Z,10.20
2018-03-11T22:18:02.606Z,10.20
2018-03-11T22:20:33.050Z,10.20
2018-03-11T22:23:02.799Z,10.20
2018-03-11T22:25:32.504Z,10.20
2018-03-11T22:28:01.629Z,10.20
2018-03-11T22:30:31.404Z,10.20
2018-03-11T22:33:01.209Z,10.30
2018-03-11T22:35:30.411Z,10.20
2018-03-11T22:38:00.466Z,10.20
2018-03-11T22:40:30.021Z,10.20
2018-03-11T22:42:59.723Z,10.20
2018-03-11T22:45:28.793Z,10.20
2018-03-11T22:48:00.493Z,10.30
2018-03-11T22:50:30.186Z,10.20
2018-03-11T22:53:01.245Z,10.20
2018-03-11T22:55:30.370Z,10.20
2018-03-11T22:57:59.914Z,10.10
2018-03-11T23:00:28.952Z,10.10
2018-03-11T23:02:59.189Z,10.10
2018-03-11T23:05:31.690Z,10.10
2018-03-11T23:08:00.940Z,10.10
2018-03-11T23:10:30.297Z,10.10
2018-03-11T23:13:00.052Z,9.90
2018-03-11T23:15:29.320Z,9.90
2018-03-11T23:17:59.298Z,9.90
2018-03-11T23:20:28.783Z,9.80
2018-03-11T23:22:59.755Z,9.70
2018-03-11T23:25:29.118Z,9.70
2018-03-11T23:27:59.375Z,9.80
2018-03-11T23:30:29.742Z,9.70
2018-03-11T23:32:59.888Z,9.80
2018-03-11T23:35:29.877Z,9.80
2018-03-11T23:37:59.847Z,9.90
2018-03-11T23:40:29.613Z,9.90
2018-03-11T23:42:59.059Z,9.90
2018-03-11T23:45:29.117Z,9.90
2018-03-11T23:47:59.403Z,9.80
2018-03-11T23:50:29.396Z,9.80
2018-03-11T23:52:59.109Z,9.90
2018-03-11T23:55:28.833Z,9.90
2018-03-11T23:57:57.936Z,9.90
